createdAt,value
2018-03-24T00:02:00.229Z,92.19
2018-03-24T00:04:27.727Z,92.28
2018-03-24T00:06:55.281Z,92.29
2018-03-24T00:09:22.854Z,92.63
2018-03-24T00:11:50.583Z,92.15
2018-03-24T00:14:18.302Z,92.21
2018-03-24T00:16:52.852Z,92.05
2018-03-24T00:19:20.548Z,92.29
2018-03-24T00:21:48.310Z,91.97
2018-03-24T00:24:15.999Z,92.53
2018-03-24T00:26:43.546Z,91.94
2018-03-24T00:29:11.107Z,92.66
2018-03-24T00:31:38.665Z,92.18
2018-03-24T00:34:06.207Z,92.21
2018-03-24T00:36:33.743Z,92.16
2018-03-24T00:39:01.240Z,92.09
2018-03-24T00:41:28.820Z,92.10
2018-03-24T00:43:56.330Z,92.05
2018-03-24T00:46:23.849Z,92.18
2018-03-24T00:48:51.429Z,92.16
2018-03-24T00:51:18.941Z,92.09
2018-03-24T00:53:46.703Z,92.13
2018-03-24T00:56:14.192Z,92.29
2018-03-24T00:58:41.731Z,92.23
2018-03-24T01:01:09.367Z,92.24
2018-03-24T01:03:37.822Z,92.42
2018-03-24T01:06:05.368Z,92.24
2018-03-24T01:08:32.875Z,92.77
2018-03-24T01:11:00.417Z,92.41
2018-03-24T01:13:27.927Z,93.00
2018-03-24T01:15:55.459Z,93.17
2018-03-24T01:18:22.957Z,92.83
2018-03-24T01:20:50.484Z,92.82
2018-03-24T01:23:17.996Z,92.88
2018-03-24T01:25:45.515Z,92.77
2018-03-24T01:28:13.052Z,92.80
2018-03-24T01:30:40.550Z,93.04
2018-03-24T01:33:08.123Z,93.10
2018-03-24T01:35:35.621Z,93.01
2018-03-24T01:38:03.117Z,93.05
2018-03-24T01:40:30.656Z,93.25
2018-03-24T01:42:58.176Z,93.32
2018-03-24T01:45:25.673Z,93.26
2018-03-24T01:47:53.186Z,93.39
2018-03-24T01:50:20.704Z,93.76
2018-03-24T01:52:48.189Z,93.35
2018-03-24T01:55:15.679Z,93.72
2018-03-24T01:57:43.182Z,93.57
2018-03-24T02:00:10.698Z,93.45
2018-03-24T02:02:38.181Z,93.41
2018-03-24T02:05:05.692Z,93.46
2018-03-24T02:07:33.196Z,93.45
2018-03-24T02:10:00.712Z,93.52
2018-03-24T02:12:28.233Z,93.36
2018-03-24T02:14:55.736Z,93.43
2018-03-24T02:17:23.260Z,93.49
2018-03-24T02:19:50.816Z,93.63
2018-03-24T02:22:18.338Z,93.85
2018-03-24T02:27:49.733Z,93.70
2018-03-24T02:30:17.226Z,93.79
2018-03-24T02:32:44.757Z,93.93
2018-03-24T02:35:12.292Z,93.92
2018-03-24T02:37:39.801Z,93.86
2018-03-24T02:40:07.314Z,94.41
2018-03-24T02:42:34.845Z,94.07
2018-03-24T02:45:02.387Z,93.66
2018-03-24T02:47:29.908Z,93.50
2018-03-24T02:49:57.405Z,93.76
2018-03-24T02:52:24.930Z,93.95
2018-03-24T02:54:52.470Z,94.25
2018-03-24T02:57:19.988Z,94.13
2018-03-24T02:59:47.520Z,94.41
2018-03-24T03:02:15.059Z,94.23
2018-03-24T03:04:42.558Z,94.14
2018-03-24T03:07:10.105Z,94.03
2018-03-24T03:09:37.635Z,94.16
2018-03-24T03:12:05.135Z,93.97
2018-03-24T03:14:32.678Z,94.18
2018-03-24T03:17:00.175Z,94.04
2018-03-24T03:19:27.690Z,94.14
2018-03-24T03:21:55.221Z,94.27
2018-03-24T03:24:22.739Z,94.13
2018-03-24T03:26:50.273Z,94.10
2018-03-24T03:29:17.809Z,94.00
2018-03-24T03:31:48.953Z,93.90
2018-03-24T03:34:16.450Z,94.04
2018-03-24T03:36:43.988Z,94.22
2018-03-24T03:39:11.540Z,94.12
2018-03-24T03:41:39.029Z,94.02
2018-03-24T03:44:06.567Z,94.08
2018-03-24T03:46:34.083Z,94.33
2018-03-24T03:49:01.607Z,93.99
2018-03-24T03:51:29.129Z,93.86
2018-03-24T03:53:56.661Z,93.98
2018-03-24T03:56:24.161Z,94.05
2018-03-24T03:58:51.700Z,94.14
2018-03-24T04:01:19.229Z,93.98
2018-03-24T04:03:46.752Z,94.08
2018-03-24T04:06:14.288Z,94.05
2018-03-24T04:08:41.784Z,94.23
2018-03-24T04:11:09.320Z,94.13
2018-03-24T04:13:36.862Z,94.22
2018-03-24T04:16:04.423Z,94.23
2018-03-24T04:18:31.996Z,94.22
2018-03-24T04:20:59.547Z,94.53
2018-03-24T04:23:27.109Z,94.86
2018-03-24T04:25:54.666Z,94.34
2018-03-24T04:28:22.223Z,95.22
2018-03-24T04:30:49.785Z,95.19
2018-03-24T04:33:17.356Z,94.82
2018-03-24T04:35:44.864Z,94.73
2018-03-24T04:38:12.429Z,94.49
2018-03-24T04:40:39.942Z,94.80
2018-03-24T04:43:07.455Z,95.32
2018-03-24T04:45:34.944Z,94.53
2018-03-24T04:48:02.456Z,94.40
2018-03-24T04:50:29.974Z,94.42
2018-03-24T04:52:57.464Z,94.69
2018-03-24T04:55:24.946Z,94.67
2018-03-24T04:57:52.479Z,94.66
2018-03-24T05:00:19.982Z,95.18
2018-03-24T05:02:47.502Z,95.43
2018-03-24T05:05:15.005Z,96.04
2018-03-24T05:07:42.516Z,96.09
2018-03-24T05:10:10.036Z,95.88
2018-03-24T05:12:37.533Z,96.26
2018-03-24T05:15:05.039Z,95.30
2018-03-24T05:17:32.550Z,95.11
2018-03-24T05:20:00.057Z,95.05
2018-03-24T05:22:27.555Z,94.94
2018-03-24T05:24:55.074Z,95.08
2018-03-24T05:27:22.576Z,94.96
2018-03-24T05:29:50.075Z,95.26
2018-03-24T05:32:17.591Z,94.80
2018-03-24T05:34:45.133Z,95.02
2018-03-24T05:37:12.718Z,95.03
2018-03-24T05:39:40.214Z,94.88
2018-03-24T05:42:07.734Z,94.97
2018-03-24T05:44:35.230Z,94.59
2018-03-24T05:47:02.742Z,94.47
2018-03-24T05:49:30.230Z,94.31
2018-03-24T05:51:57.763Z,94.32
2018-03-24T05:54:25.347Z,94.15
2018-03-24T05:56:52.814Z,94.21
2018-03-24T05:59:20.337Z,94.36
2018-03-24T06:01:47.830Z,94.19
2018-03-24T06:04:15.391Z,94.33
2018-03-24T06:06:42.903Z,94.00
2018-03-24T06:09:11.056Z,94.43
2018-03-24T06:11:38.553Z,93.78
2018-03-24T06:14:06.057Z,93.86
2018-03-24T06:16:33.568Z,93.77
2018-03-24T06:19:01.071Z,93.54
2018-03-24T06:21:28.565Z,93.46
2018-03-24T06:23:56.069Z,93.31
2018-03-24T06:26:23.578Z,93.02
2018-03-24T06:28:51.095Z,93.00
2018-03-24T06:31:20.397Z,93.13
2018-03-24T06:33:47.911Z,92.51
2018-03-24T06:36:15.404Z,92.55
2018-03-24T06:38:42.913Z,92.27
2018-03-24T06:41:10.420Z,92.30
2018-03-24T06:43:37.937Z,92.21
2018-03-24T06:46:05.922Z,92.63
2018-03-24T06:48:33.409Z,92.62
2018-03-24T06:51:00.903Z,91.43
2018-03-24T06:53:28.390Z,91.34
2018-03-24T06:55:55.892Z,91.31
2018-03-24T06:58:23.424Z,91.19
2018-03-24T07:00:50.931Z,91.58
2018-03-24T07:03:18.437Z,91.27
2018-03-24T07:05:45.946Z,90.78
2018-03-24T07:08:13.457Z,91.44
2018-03-24T07:10:40.964Z,91.11
2018-03-24T07:13:08.525Z,90.80
2018-03-24T07:15:36.964Z,90.59
2018-03-24T07:18:04.549Z,90.59
2018-03-24T07:20:32.221Z,90.76
2018-03-24T07:23:00.247Z,90.62
2018-03-24T07:25:27.814Z,90.43
2018-03-24T07:27:55.332Z,90.97
2018-03-24T07:30:23.251Z,89.77
2018-03-24T07:32:50.794Z,89.87
2018-03-24T07:35:18.286Z,89.31
2018-03-24T07:37:45.859Z,89.51
2018-03-24T07:40:15.184Z,89.51
2018-03-24T07:42:42.690Z,89.25
2018-03-24T07:45:10.284Z,89.29
2018-03-24T07:47:38.082Z,88.78
2018-03-24T07:50:05.595Z,88.76
2018-03-24T07:52:33.105Z,88.64
2018-03-24T07:55:00.598Z,88.56
2018-03-24T07:57:28.138Z,88.04
2018-03-24T07:59:55.647Z,88.19
2018-03-24T08:02:23.172Z,88.31
2018-03-24T08:04:50.661Z,87.97
2018-03-24T08:07:18.152Z,87.39
2018-03-24T08:09:45.648Z,87.09
2018-03-24T08:12:13.193Z,87.52
2018-03-24T08:14:40.692Z,86.52
2018-03-24T08:17:08.289Z,86.85
2018-03-24T08:19:35.795Z,86.61
2018-03-24T08:22:03.322Z,86.51
2018-03-24T08:24:30.869Z,86.69
2018-03-24T08:26:58.319Z,87.26
2018-03-24T08:29:25.822Z,86.97
2018-03-24T08:31:53.440Z,86.91
2018-03-24T08:34:20.948Z,87.49
2018-03-24T08:36:48.587Z,86.31
2018-03-24T08:39:16.323Z,85.86
2018-03-24T08:41:44.020Z,86.14
2018-03-24T08:44:11.560Z,85.81
2018-03-24T08:46:39.068Z,86.07
2018-03-24T08:49:06.579Z,87.44
2018-03-24T08:51:34.129Z,86.36
2018-03-24T08:54:01.654Z,85.94
2018-03-24T08:56:29.295Z,87.13
2018-03-24T08:58:56.835Z,86.16
2018-03-24T09:01:24.450Z,86.43
2018-03-24T09:03:51.972Z,86.72
2018-03-24T09:06:20.155Z,86.46
2018-03-24T09:08:52.577Z,85.62
2018-03-24T09:11:20.137Z,85.13
2018-03-24T09:13:47.682Z,85.19
2018-03-24T09:16:15.170Z,86.18
2018-03-24T09:18:42.665Z,84.17
2018-03-24T09:21:10.188Z,84.72
2018-03-24T09:23:37.733Z,84.05
2018-03-24T09:26:05.237Z,83.86
2018-03-24T09:28:32.806Z,82.94
2018-03-24T09:31:00.359Z,82.80
2018-03-24T09:33:27.918Z,81.29
2018-03-24T09:35:55.433Z,82.14
2018-03-24T09:38:22.963Z,80.64
2018-03-24T09:40:50.448Z,80.25
2018-03-24T09:43:17.955Z,82.00
2018-03-24T09:45:45.463Z,81.59
2018-03-24T09:48:12.940Z,81.89
2018-03-24T09:50:40.442Z,81.61
2018-03-24T09:53:08.035Z,81.34
2018-03-24T09:55:35.573Z,80.57
2018-03-24T09:58:03.103Z,80.68
2018-03-24T10:00:30.593Z,80.79
2018-03-24T10:02:58.117Z,79.90
2018-03-24T10:05:25.627Z,79.81
2018-03-24T10:07:53.163Z,79.43
2018-03-24T10:10:20.693Z,78.50
2018-03-24T10:12:48.190Z,79.35
2018-03-24T10:15:15.735Z,78.80
2018-03-24T10:17:43.251Z,77.47
2018-03-24T10:20:10.753Z,76.47
2018-03-24T10:25:42.784Z,74.13
2018-03-24T10:28:10.324Z,74.27
2018-03-24T10:30:37.875Z,74.18
2018-03-24T10:33:05.393Z,70.14
2018-03-24T10:35:32.909Z,72.59
2018-03-24T10:38:00.455Z,72.21
2018-03-24T10:40:27.946Z,73.02
2018-03-24T10:43:01.099Z,69.61
2018-03-24T10:45:28.636Z,69.48
2018-03-24T10:47:56.134Z,68.65
2018-03-24T10:50:23.645Z,66.54
2018-03-24T10:52:51.144Z,68.79
2018-03-24T10:55:18.665Z,69.87
2018-03-24T10:57:46.194Z,67.71
2018-03-24T11:00:13.703Z,62.69
2018-03-24T11:02:41.239Z,63.93
2018-03-24T11:05:08.768Z,66.42
2018-03-24T11:07:36.281Z,66.57
2018-03-24T11:10:03.817Z,63.04
2018-03-24T11:12:31.312Z,64.06
2018-03-24T11:14:58.807Z,62.46
2018-03-24T11:17:26.315Z,62.27
2018-03-24T11:19:53.872Z,61.45
2018-03-24T11:22:21.395Z,63.57
2018-03-24T11:24:48.920Z,64.18
2018-03-24T11:27:16.437Z,61.38
2018-03-24T11:29:43.929Z,62.09
2018-03-24T11:32:11.427Z,62.51
2018-03-24T11:34:38.929Z,61.43
2018-03-24T11:37:06.469Z,61.53
2018-03-24T11:39:34.010Z,61.21
2018-03-24T11:42:01.537Z,61.14
2018-03-24T11:44:29.046Z,59.78
2018-03-24T11:46:56.545Z,59.37
2018-03-24T11:49:24.104Z,60.01
2018-03-24T11:51:51.605Z,59.28
2018-03-24T11:54:30.806Z,59.39
2018-03-24T11:56:58.332Z,58.99
2018-03-24T11:59:25.865Z,55.28
2018-03-24T12:01:53.885Z,59.16
2018-03-24T12:04:21.385Z,56.06
2018-03-24T12:06:48.931Z,55.77
2018-03-24T12:09:16.456Z,54.35
2018-03-24T12:11:43.979Z,55.53
2018-03-24T12:14:11.523Z,56.47
2018-03-24T12:16:39.086Z,57.26
2018-03-24T12:19:06.583Z,58.82
2018-03-24T12:21:34.100Z,56.50
2018-03-24T12:24:01.624Z,56.04
2018-03-24T12:26:29.192Z,54.02
2018-03-24T12:28:57.367Z,54.71
2018-03-24T12:31:24.890Z,54.51
2018-03-24T12:33:52.409Z,56.01
2018-03-24T12:36:19.933Z,53.55
2018-03-24T12:38:47.432Z,52.10
2018-03-24T12:41:14.930Z,53.15
2018-03-24T12:43:42.439Z,55.14
2018-03-24T12:46:12.811Z,50.18
2018-03-24T12:48:40.309Z,55.33
2018-03-24T12:51:07.817Z,54.32
2018-03-24T12:53:35.459Z,54.21
2018-03-24T12:56:03.031Z,55.82
2018-03-24T12:58:30.548Z,53.11
2018-03-24T13:00:58.044Z,51.86
2018-03-24T13:03:25.583Z,52.88
2018-03-24T13:05:53.095Z,49.91
2018-03-24T13:08:20.646Z,52.32
2018-03-24T13:10:48.264Z,51.01
2018-03-24T13:13:15.763Z,49.04
2018-03-24T13:15:43.306Z,50.26
2018-03-24T13:18:10.843Z,50.78
2018-03-24T13:20:38.445Z,50.71
2018-03-24T13:23:05.941Z,51.54
2018-03-24T13:25:33.504Z,52.14
2018-03-24T13:28:01.087Z,52.25
2018-03-24T13:30:28.637Z,52.85
2018-03-24T13:32:56.156Z,51.94
2018-03-24T13:35:23.703Z,51.78
2018-03-24T13:37:51.284Z,51.71
2018-03-24T13:40:18.813Z,52.51
2018-03-24T13:42:46.313Z,52.40
2018-03-24T13:45:13.858Z,52.84
2018-03-24T13:47:41.358Z,53.07
2018-03-24T13:50:08.888Z,52.36
2018-03-24T13:52:36.402Z,54.02
2018-03-24T13:55:03.909Z,53.12
2018-03-24T13:57:31.446Z,53.43
2018-03-24T13:59:58.941Z,53.69
2018-03-24T14:02:26.468Z,53.48
2018-03-24T14:04:54.001Z,54.09
2018-03-24T14:07:21.492Z,56.06
2018-03-24T14:09:49.015Z,58.78
2018-03-24T14:12:16.525Z,56.26
2018-03-24T14:14:44.040Z,55.96
2018-03-24T14:17:11.576Z,56.50
2018-03-24T14:19:39.089Z,57.37
2018-03-24T14:22:06.606Z,58.04
2018-03-24T14:24:34.135Z,57.83
2018-03-24T14:27:01.682Z,57.85
2018-03-24T14:29:29.228Z,57.43
2018-03-24T14:31:56.770Z,58.54
2018-03-24T14:34:24.279Z,58.13
2018-03-24T14:36:51.779Z,58.33
2018-03-24T14:39:19.282Z,58.68
2018-03-24T14:41:46.806Z,57.41
2018-03-24T14:44:14.324Z,57.62
2018-03-24T14:46:41.830Z,57.59
2018-03-24T14:49:09.349Z,57.36
2018-03-24T14:51:36.933Z,57.82
2018-03-24T14:54:04.468Z,57.62
2018-03-24T14:56:31.957Z,57.33
2018-03-24T14:58:59.507Z,57.56
2018-03-24T15:01:27.067Z,56.98
2018-03-24T15:03:54.599Z,57.39
2018-03-24T15:06:22.094Z,54.66
2018-03-24T15:08:49.614Z,55.01
2018-03-24T15:11:17.131Z,56.72
2018-03-24T15:13:44.649Z,57.16
2018-03-24T15:16:12.164Z,55.58
2018-03-24T15:18:39.661Z,58.09
2018-03-24T15:21:07.226Z,56.37
2018-03-24T15:23:34.735Z,56.74
2018-03-24T15:26:02.265Z,55.67
2018-03-24T15:28:29.769Z,56.00
2018-03-24T15:31:10.008Z,56.45
2018-03-24T15:33:49.291Z,56.93
2018-03-24T15:36:28.419Z,57.16
2018-03-24T15:38:55.949Z,57.18
2018-03-24T15:41:23.467Z,57.93
2018-03-24T15:43:50.965Z,59.06
2018-03-24T15:46:18.471Z,59.65
2018-03-24T15:48:45.991Z,59.46
2018-03-24T15:51:13.556Z,60.97
2018-03-24T15:53:41.089Z,59.16
2018-03-24T15:56:08.609Z,58.93
2018-03-24T15:58:36.130Z,59.14
2018-03-24T16:01:03.657Z,59.20
2018-03-24T16:03:31.183Z,58.19
2018-03-24T16:05:58.725Z,58.34
2018-03-24T16:08:26.263Z,58.90
2018-03-24T16:10:53.800Z,59.25
2018-03-24T16:13:21.312Z,59.02
2018-03-24T16:15:48.821Z,59.16
2018-03-24T16:18:16.326Z,59.88
2018-03-24T16:20:43.942Z,59.42
2018-03-24T16:23:11.487Z,58.94
2018-03-24T16:25:39.000Z,59.82
2018-03-24T16:28:06.528Z,60.93
2018-03-24T16:30:34.045Z,61.55
2018-03-24T16:33:01.541Z,62.27
2018-03-24T16:35:29.086Z,62.66
2018-03-24T16:37:56.592Z,62.39
2018-03-24T16:40:24.123Z,62.95
2018-03-24T16:42:51.762Z,63.21
2018-03-24T16:45:19.283Z,63.63
2018-03-24T16:47:46.796Z,63.44
2018-03-24T16:50:14.339Z,63.77
2018-03-24T16:52:41.841Z,64.25
2018-03-24T16:55:09.379Z,63.81
2018-03-24T16:57:36.891Z,64.14
2018-03-24T17:00:04.432Z,64.15
2018-03-24T17:02:31.971Z,64.27
2018-03-24T17:04:59.486Z,64.53
2018-03-24T17:07:26.985Z,64.91
2018-03-24T17:09:54.500Z,64.84
2018-03-24T17:12:22.019Z,65.35
2018-03-24T17:14:49.493Z,65.31
2018-03-24T17:17:16.999Z,66.18
2018-03-24T17:19:44.526Z,66.00
2018-03-24T17:22:12.046Z,66.33
2018-03-24T17:24:39.551Z,66.99
2018-03-24T17:27:07.064Z,66.59
2018-03-24T17:29:34.589Z,66.50
2018-03-24T17:32:02.165Z,67.10
2018-03-24T17:34:29.716Z,66.66
2018-03-24T17:36:57.232Z,67.22
2018-03-24T17:39:24.764Z,66.49
2018-03-24T17:41:52.279Z,66.54
2018-03-24T17:44:19.772Z,66.41
2018-03-24T17:46:47.299Z,66.13
2018-03-24T17:49:15.813Z,66.31
2018-03-24T17:51:44.580Z,66.53
2018-03-24T17:54:15.031Z,67.08
2018-03-24T17:56:42.639Z,67.57
2018-03-24T17:59:10.165Z,67.56
2018-03-24T18:01:37.658Z,67.89
2018-03-24T18:04:05.240Z,68.10
2018-03-24T18:06:32.800Z,68.08
2018-03-24T18:09:00.378Z,68.41
2018-03-24T18:11:28.010Z,68.70
2018-03-24T18:13:55.508Z,69.18
2018-03-24T18:16:23.007Z,68.92
2018-03-24T18:18:50.524Z,69.10
2018-03-24T18:21:18.042Z,69.25
2018-03-24T18:23:45.533Z,69.26
2018-03-24T18:26:13.094Z,69.48
2018-03-24T18:28:40.626Z,69.11
2018-03-24T18:31:08.394Z,69.18
2018-03-24T18:33:35.903Z,69.01
2018-03-24T18:36:03.418Z,69.13
2018-03-24T18:38:30.928Z,69.28
2018-03-24T18:40:58.442Z,69.36
2018-03-24T18:43:25.945Z,69.24
2018-03-24T18:45:53.489Z,69.20
2018-03-24T18:48:21.011Z,69.07
2018-03-24T18:50:48.528Z,69.27
2018-03-24T18:53:16.017Z,69.41
2018-03-24T18:55:43.542Z,69.12
2018-03-24T18:58:11.033Z,68.94
2018-03-24T19:00:38.651Z,68.76
2018-03-24T19:03:06.275Z,68.31
2018-03-24T19:05:33.785Z,68.84
2018-03-24T19:08:01.304Z,68.84
2018-03-24T19:10:28.837Z,69.14
2018-03-24T19:12:56.344Z,69.27
2018-03-24T19:15:23.928Z,69.30
2018-03-24T19:17:51.517Z,69.56
2018-03-24T19:20:19.050Z,69.69
2018-03-24T19:22:47.421Z,70.17
2018-03-24T19:25:14.924Z,70.20
2018-03-24T19:27:42.442Z,70.40
2018-03-24T19:30:09.968Z,70.66
2018-03-24T19:32:37.614Z,70.88
2018-03-24T19:35:05.119Z,70.98
2018-03-24T19:37:32.723Z,71.36
2018-03-24T19:40:00.252Z,71.90
2018-03-24T19:42:27.789Z,72.21
2018-03-24T19:44:55.284Z,72.42
2018-03-24T19:47:22.813Z,72.70
2018-03-24T19:49:50.332Z,73.02
2018-03-24T19:52:17.851Z,73.39
2018-03-24T19:54:45.372Z,73.65
2018-03-24T19:57:12.878Z,74.09
2018-03-24T19:59:40.403Z,74.09
2018-03-24T20:02:08.015Z,74.33
2018-03-24T20:04:36.208Z,74.59
2018-03-24T20:07:03.724Z,74.80
2018-03-24T20:09:31.271Z,75.21
2018-03-24T20:11:58.780Z,75.33
2018-03-24T20:14:26.317Z,75.56
2018-03-24T20:16:53.810Z,76.13
2018-03-24T20:19:21.317Z,76.20
2018-03-24T20:21:48.881Z,76.52
2018-03-24T20:24:39.834Z,76.89
2018-03-24T20:27:07.379Z,77.90
2018-03-24T20:29:34.995Z,78.62
2018-03-24T20:32:02.603Z,78.79
2018-03-24T20:34:30.168Z,79.25
2018-03-24T20:36:57.751Z,79.24
2018-03-24T20:39:25.271Z,79.73
2018-03-24T20:41:52.839Z,80.23
2018-03-24T20:44:20.357Z,80.14
2018-03-24T20:46:47.855Z,80.05
2018-03-24T20:49:15.382Z,80.24
2018-03-24T20:51:42.915Z,81.10
2018-03-24T20:54:10.408Z,81.41
2018-03-24T20:56:37.931Z,81.50
2018-03-24T20:59:05.429Z,81.30
2018-03-24T21:01:32.912Z,81.28
2018-03-24T21:04:00.421Z,81.71
2018-03-24T21:06:27.962Z,81.66
2018-03-24T21:08:55.460Z,82.65
2018-03-24T21:11:22.963Z,83.21
2018-03-24T21:13:50.483Z,83.54
2018-03-24T21:16:17.980Z,83.65
2018-03-24T21:18:45.538Z,83.76
2018-03-24T21:21:13.076Z,84.28
2018-03-24T21:23:40.592Z,84.97
2018-03-24T21:26:08.093Z,85.23
2018-03-24T21:28:35.582Z,85.40
2018-03-24T21:31:03.125Z,85.69
2018-03-24T21:33:30.660Z,85.82
2018-03-24T21:35:58.162Z,85.88
2018-03-24T21:38:25.681Z,85.77
2018-03-24T21:40:53.822Z,85.91
2018-03-24T21:43:21.498Z,86.01
2018-03-24T21:45:49.145Z,85.98
2018-03-24T21:48:16.659Z,86.04
2018-03-24T21:50:44.206Z,85.96
2018-03-24T21:53:11.717Z,85.97
2018-03-24T21:55:39.503Z,85.99
2018-03-24T21:58:07.112Z,85.55
2018-03-24T22:00:34.615Z,85.73
2018-03-24T22:03:02.130Z,85.75
2018-03-24T22:05:29.714Z,86.00
2018-03-24T22:07:57.332Z,86.05
2018-03-24T22:10:24.829Z,86.04
2018-03-24T22:12:52.391Z,86.11
2018-03-24T22:15:19.908Z,86.21
2018-03-24T22:17:47.834Z,86.37
2018-03-24T22:20:15.371Z,86.54
2018-03-24T22:22:42.895Z,86.14
2018-03-24T22:25:10.405Z,86.17
2018-03-24T22:27:38.001Z,86.53
2018-03-24T22:30:05.519Z,86.81
2018-03-24T22:32:33.028Z,87.20
2018-03-24T22:35:00.524Z,87.30
2018-03-24T22:37:28.090Z,87.31
2018-03-24T22:39:55.635Z,87.32
2018-03-24T22:42:23.235Z,87.20
2018-03-24T22:44:50.766Z,87.84
2018-03-24T22:47:18.312Z,87.68
2018-03-24T22:49:45.824Z,87.73
2018-03-24T22:52:13.348Z,87.80
2018-03-24T22:54:40.866Z,87.68
2018-03-24T22:57:08.378Z,87.85
2018-03-24T22:59:35.915Z,87.97
2018-03-24T23:02:03.428Z,88.13
2018-03-24T23:04:30.944Z,88.49
2018-03-24T23:06:58.445Z,88.17
2018-03-24T23:09:25.964Z,88.02
2018-03-24T23:11:53.511Z,88.35
2018-03-24T23:14:21.062Z,88.16
2018-03-24T23:16:48.595Z,88.47
2018-03-24T23:19:16.109Z,88.21
2018-03-24T23:21:43.627Z,88.31
2018-03-24T23:24:11.113Z,87.75
2018-03-24T23:26:38.633Z,87.89
2018-03-24T23:29:06.136Z,88.44
2018-03-24T23:31:33.662Z,88.17
2018-03-24T23:34:01.182Z,87.95
2018-03-24T23:36:28.720Z,88.10
2018-03-24T23:38:56.235Z,87.98
2018-03-24T23:41:23.735Z,88.12
2018-03-24T23:43:51.258Z,88.14
2018-03-24T23:46:18.752Z,88.12
2018-03-24T23:48:46.232Z,88.30
2018-03-24T23:51:13.725Z,88.15
2018-03-24T23:53:41.225Z,88.20
2018-03-24T23:56:08.763Z,88.02
2018-03-24T23:58:36.301Z,88.08
